Time;durP1;ratioP1;P1;durP2;ratioP2;P2;SDS_P1;SDS_P2;PMS_P1;PMS_P2;Temp;Humidity;BMP_temperature;BMP_pressure;BME280_temperature;BME280_humidity;BME280_pressure;Samples;Min_cycle;Max_cycle;Signal;HPM_P1;HPM_P2
2023/09/23 00:01:05;;;;;;;3.65;1.38;;;;;;;20.18;100.00;98221.41;4891511;29;20053;-96
2023/09/23 00:03:33;;;;;;;3.53;1.30;;;;;;;20.13;100.00;98217.34;4891155;29;20068;-96
2023/09/23 00:05:59;;;;;;;4.03;1.35;;;;;;;20.08;100.00;98221.25;4908635;29;20146;-95
2023/09/23 00:08:25;;;;;;;6.05;1.75;;;;;;;19.54;100.00;98139.81;4892247;29;20445;-95
2023/09/23 00:10:51;;;;;;;5.65;1.42;;;;;;;19.62;100.00;98145.50;4891090;29;20080;-95
2023/09/23 00:13:18;;;;;;;2.42;1.13;;;;;;;19.77;100.00;98167.81;4892282;29;20055;-96
2023/09/23 00:15:44;;;;;;;6.20;1.40;;;;;;;19.74;100.00;98168.06;4890964;29;20053;-96
2023/09/23 00:18:17;;;;;;;3.47;1.25;;;;;;;19.59;100.00;98129.56;4903691;29;20057;-95
2023/09/23 00:20:43;;;;;;;4.78;1.30;;;;;;;19.90;100.00;98182.13;4907680;29;20048;-94
2023/09/23 00:23:09;;;;;;;2.97;0.93;;;;;;;19.66;100.00;98147.84;4900976;29;20048;-96
2023/09/23 00:25:35;;;;;;;2.83;1.23;;;;;;;19.80;100.00;98170.28;4897599;29;20049;-93
2023/09/23 00:28:02;;;;;;;3.20;1.27;;;;;;;20.20;100.00;98222.13;4894689;29;20055;-96
2023/09/23 00:30:28;;;;;;;3.17;1.20;;;;;;;20.00;100.00;98196.66;4906421;29;20036;-95
2023/09/23 00:32:54;;;;;;;2.28;1.10;;;;;;;19.76;100.00;98166.97;4908027;29;20051;-94
2023/09/23 00:35:23;;;;;;;3.95;0.98;;;;;;;19.87;100.00;98175.13;4912686;29;20079;-95
2023/09/23 00:37:49;;;;;;;2.25;1.23;;;;;;;19.88;100.00;98168.72;4911958;29;20079;-96
2023/09/23 00:40:20;;;;;;;4.13;1.00;;;;;;;19.62;100.00;98119.38;4910668;29;20032;-96
2023/09/23 00:42:47;;;;;;;2.60;1.05;;;;;;;19.76;100.00;98115.72;4898151;29;20477;-94
2023/09/23 00:45:15;;;;;;;2.70;0.93;;;;;;;19.67;100.00;98103.75;4893293;29;20057;-95
2023/09/23 00:47:42;;;;;;;3.42;0.85;;;;;;;19.74;100.00;98081.72;4889371;29;20052;-95
2023/09/23 00:50:19;;;;;;;2.25;1.15;;;;;;;19.58;100.00;98057.69;4889300;29;20044;-96
2023/09/23 00:52:51;;;;;;;4.40;1.30;;;;;;;19.63;100.00;98096.00;4888820;29;20111;-96
2023/09/23 00:55:18;;;;;;;2.90;1.08;;;;;;;19.77;100.00;98144.41;4889948;29;20063;-96
2023/09/23 00:57:47;;;;;;;2.22;0.95;;;;;;;19.22;100.00;98067.56;4889941;29;20590;-95
2023/09/23 01:00:13;;;;;;;3.15;0.93;;;;;;;19.09;100.00;98079.25;4890412;29;20580;-96
2023/09/23 01:02:40;;;;;;;1.90;0.98;;;;;;;19.35;100.00;98113.38;4888912;29;20048;-94
2023/09/23 01:05:08;;;;;;;2.45;1.00;;;;;;;19.12;100.00;98063.81;4888551;29;20049;-95
2023/09/23 01:07:35;;;;;;;2.60;1.05;;;;;;;19.42;100.00;98104.69;4886919;29;20447;-95
2023/09/23 01:10:03;;;;;;;3.97;1.05;;;;;;;19.24;100.00;98089.88;4887831;29;20044;-96
2023/09/23 01:12:30;;;;;;;1.75;0.75;;;;;;;19.33;100.00;98102.69;4888059;29;20100;-96
2023/09/23 01:15:04;;;;;;;2.78;0.93;;;;;;;19.43;100.00;98095.66;4887352;29;20116;-96
2023/09/23 01:17:30;;;;;;;3.15;1.00;;;;;;;19.09;100.00;98057.69;4888047;29;20056;-96
2023/09/23 01:19:56;;;;;;;3.28;0.93;;;;;;;19.09;100.00;98036.13;4888341;29;20048;-95
2023/09/23 01:22:24;;;;;;;2.58;1.00;;;;;;;19.15;100.00;98055.50;4888277;29;20045;-95
2023/09/23 01:24:50;;;;;;;2.80;1.13;;;;;;;19.05;100.00;98009.53;4868413;29;20045;-95
2023/09/23 01:27:18;;;;;;;2.95;1.08;;;;;;;19.24;100.00;98044.91;4874968;29;20069;-95
2023/09/23 01:29:44;;;;;;;2.35;1.00;;;;;;;18.89;100.00;98042.13;4888305;29;20052;-95
2023/09/23 01:32:25;;;;;;;2.88;1.35;;;;;;;19.10;100.00;98104.34;4886701;29;20049;-94
2023/09/23 01:34:52;;;;;;;1.90;1.25;;;;;;;19.24;100.00;98141.97;4888248;29;20037;-96
2023/09/23 01:37:19;;;;;;;3.00;0.90;;;;;;;19.06;100.00;98095.66;4888014;29;20104;-95
2023/09/23 01:39:48;;;;;;;5.43;1.10;;;;;;;19.20;100.00;98066.81;4888939;29;20049;-95
2023/09/23 01:42:14;;;;;;;2.22;0.80;;;;;;;18.89;100.00;98020.56;4889766;29;20044;-95
2023/09/23 01:44:41;;;;;;;2.55;0.90;;;;;;;19.00;100.00;98034.13;4890778;29;20143;-95
2023/09/23 01:47:07;;;;;;;3.22;1.13;;;;;;;18.91;100.00;98059.03;4883702;29;20602;-96
2023/09/23 01:49:33;;;;;;;3.75;1.20;;;;;;;18.93;100.00;98065.16;4894802;29;20056;-94
2023/09/23 01:51:59;;;;;;;5.25;1.15;;;;;;;18.81;100.00;98049.91;4907453;29;20080;-95
2023/09/23 01:54:26;;;;;;;4.30;0.85;;;;;;;18.98;100.00;98081.84;4911946;29;20044;-94
2023/09/23 01:56:53;;;;;;;3.05;1.05;;;;;;;18.82;100.00;98051.59;4901252;29;20127;-95
2023/09/23 01:59:19;;;;;;;2.55;1.02;;;;;;;18.93;100.00;98081.31;4893402;29;20079;-94
2023/09/23 02:01:45;;;;;;;3.90;0.82;;;;;;;18.88;100.00;98061.94;4894057;29;20113;-96
2023/09/23 02:04:11;;;;;;;3.13;0.90;;;;;;;18.89;100.00;98055.59;4894011;29;20051;-95
2023/09/23 02:06:42;;;;;;;6.10;1.30;;;;;;;18.75;100.00;98048.47;4905089;29;20048;-95
2023/09/23 02:09:10;;;;;;;3.25;0.93;;;;;;;18.70;100.00;98045.25;4910307;29;20040;-94
2023/09/23 02:11:37;;;;;;;3.25;1.17;;;;;;;18.94;100.00;98110.00;4909106;29;20505;-94
2023/09/23 02:14:04;;;;;;;4.15;1.10;;;;;;;18.64;100.00;98065.38;4892510;29;20053;-95
2023/09/23 02:16:30;;;;;;;3.40;1.10;;;;;;;18.72;100.00;98085.53;4900480;29;20059;-96
2023/09/23 02:18:57;;;;;;;6.00;1.60;;;;;;;18.73;100.00;98106.09;4896235;29;20055;-94
2023/09/23 02:21:23;;;;;;;4.05;1.05;;;;;;;18.46;100.00;98077.47;4898743;29;20051;-94
2023/09/23 02:23:49;;;;;;;4.75;1.48;;;;;;;18.54;100.00;98075.09;4909661;29;20048;-95
2023/09/23 02:26:15;;;;;;;2.40;1.00;;;;;;;18.70;100.00;98087.47;4909027;29;20048;-94
2023/09/23 02:28:41;;;;;;;2.50;0.82;;;;;;;19.23;100.00;98175.25;4899518;29;20048;-94
2023/09/23 02:31:09;;;;;;;6.32;1.38;;;;;;;19.00;100.00;98128.41;4901375;29;20048;-95
2023/09/23 02:33:35;;;;;;;6.60;1.63;;;;;;;18.53;100.00;98046.44;4902201;29;20482;-96
2023/09/23 02:36:01;;;;;;;3.05;0.93;;;;;;;18.66;100.00;98058.06;4896507;29;20092;-95
2023/09/23 02:38:28;;;;;;;3.92;1.00;;;;;;;18.65;100.00;98058.16;4890264;29;20072;-96
2023/09/23 02:41:00;;;;;;;5.75;1.58;;;;;;;18.59;100.00;98045.16;4894371;29;20060;-95
2023/09/23 02:43:25;;;;;;;2.67;1.23;;;;;;;18.93;100.00;98100.16;4901797;29;20044;-94
2023/09/23 02:45:56;;;;;;;6.03;1.35;;;;;;;18.63;100.00;98036.75;4905430;29;20044;-95
2023/09/23 02:48:24;;;;;;;5.35;1.25;;;;;;;18.60;100.00;98026.19;4902060;29;20052;-94
2023/09/23 02:50:50;;;;;;;4.15;1.40;;;;;;;18.64;100.00;98034.91;4898056;29;20045;-94
2023/09/23 02:53:16;;;;;;;6.25;1.15;;;;;;;19.03;100.00;98108.47;4900646;29;20055;-95
2023/09/23 02:55:51;;;;;;;2.67;1.20;;;;;;;18.79;100.00;98062.59;4906562;29;20059;-94
2023/09/23 02:58:17;;;;;;;3.95;1.02;;;;;;;18.85;100.00;98084.56;4903655;29;20119;-96
2023/09/23 03:00:57;;;;;;;4.18;1.42;;;;;;;18.50;100.00;98024.25;4910162;29;20056;-94
2023/09/23 03:03:24;;;;;;;3.08;1.23;;;;;;;18.61;100.00;98030.59;4900929;29;20040;-95
2023/09/23 03:05:55;;;;;;;4.90;1.00;;;;;;;18.61;100.00;98035.13;4894430;29;20487;-94
2023/09/23 03:08:22;;;;;;;4.75;1.33;;;;;;;18.57;100.00;98023.72;4891905;29;20051;-94
2023/09/23 03:10:52;;;;;;;5.00;1.65;;;;;;;18.47;100.00;98019.94;4891872;29;20474;-95
2023/09/23 03:13:18;;;;;;;3.00;1.30;;;;;;;18.39;100.00;98027.69;4911418;29;20079;-95
2023/09/23 03:15:58;;;;;;;4.43;1.27;;;;;;;18.40;100.00;98026.75;4898812;29;20112;-94
2023/09/23 03:18:33;;;;;;;3.50;1.08;;;;;;;18.43;100.00;98030.09;4896133;29;20048;-94
2023/09/23 03:21:04;;;;;;;2.50;1.25;;;;;;;18.69;100.00;98091.97;4901343;29;20044;-95
2023/09/23 03:23:29;;;;;;;4.32;1.30;;;;;;;18.39;100.00;98046.53;4896416;29;20045;-96
2023/09/23 03:25:56;;;;;;;6.28;1.35;;;;;;;18.43;100.00;98056.13;4896183;29;20045;-95
2023/09/23 03:28:22;;;;;;;3.67;1.50;;;;;;;18.23;100.00;98054.84;4904697;29;20071;-96
2023/09/23 03:30:49;;;;;;;4.00;1.15;;;;;;;18.42;100.00;98101.03;4900127;29;20151;-94
2023/09/23 03:33:15;;;;;;;3.97;1.65;;;;;;;18.12;100.00;98090.56;4901785;29;20055;-94
2023/09/23 03:35:44;;;;;;;3.80;1.48;;;;;;;18.09;100.00;98090.78;4907241;29;20093;-94
2023/09/23 03:38:10;;;;;;;2.20;0.88;;;;;;;18.20;100.00;98103.50;4888681;29;20085;-94
2023/09/23 03:40:38;;;;;;;4.22;1.15;;;;;;;18.11;100.00;98093.34;4913393;29;20056;-94
2023/09/23 03:43:04;;;;;;;4.68;1.17;;;;;;;18.00;100.00;98081.53;4901997;29;20048;-96
2023/09/23 03:45:32;;;;;;;2.63;1.00;;;;;;;18.13;100.00;98078.84;4912540;29;20044;-94
2023/09/23 03:47:58;;;;;;;3.03;1.10;;;;;;;18.29;100.00;98099.31;4913173;29;20047;-94
2023/09/23 03:50:25;;;;;;;3.25;1.23;;;;;;;18.35;100.00;98102.44;4914478;29;20077;-95
2023/09/23 03:52:53;;;;;;;9.35;1.33;;;;;;;18.36;100.00;98100.63;4915132;29;20040;-95
2023/09/23 03:55:20;;;;;;;4.25;0.90;;;;;;;18.85;100.00;98181.56;4913193;29;20115;-95
2023/09/23 03:57:46;;;;;;;2.75;1.08;;;;;;;18.40;100.00;98100.28;4908809;29;20044;-95
2023/09/23 04:00:16;;;;;;;2.40;1.00;;;;;;;19.04;100.00;98182.94;4898278;29;20048;-94
2023/09/23 04:02:44;;;;;;;2.03;0.80;;;;;;;18.78;100.00;98137.19;4904368;29;20406;-95
2023/09/23 04:05:10;;;;;;;3.65;1.00;;;;;;;19.05;100.00;98165.81;4906150;29;20052;-95
2023/09/23 04:07:40;;;;;;;3.10;1.15;;;;;;;18.92;100.00;98140.72;4908576;29;20048;-94
2023/09/23 04:10:10;;;;;;;3.08;0.73;;;;;;;19.12;100.00;98179.72;4915252;29;20056;-96
2023/09/23 04:12:37;;;;;;;4.50;1.17;;;;;;;18.59;100.00;98110.63;4914600;29;20043;-95
2023/09/23 04:15:07;;;;;;;2.10;1.25;;;;;;;19.03;100.00;98195.56;4907636;29;20414;-94
2023/09/23 04:17:33;;;;;;;5.55;1.45;;;;;;;18.83;100.00;98169.16;4906125;29;20048;-94
2023/09/23 04:20:09;;;;;;;2.80;1.20;;;;;;;18.71;100.00;98138.53;4913497;29;20079;-95
2023/09/23 04:22:36;;;;;;;1.98;1.00;;;;;;;18.57;100.00;98111.72;4895120;29;20506;-96
2023/09/23 04:25:04;;;;;;;4.80;1.17;;;;;;;18.70;100.00;98136.81;4906181;29;20035;-95
2023/09/23 04:27:33;;;;;;;4.35;0.93;;;;;;;18.83;100.00;98175.41;4913660;29;20055;-96
2023/09/23 04:30:00;;;;;;;2.00;1.13;;;;;;;18.83;100.00;98155.69;4900726;29;20052;-93
2023/09/23 04:32:26;;;;;;;4.28;0.93;;;;;;;19.01;100.00;98188.56;4901558;29;20043;-95
2023/09/23 04:34:53;;;;;;;3.90;1.48;;;;;;;18.48;100.00;98111.38;4897162;29;20128;-93
2023/09/23 04:37:19;;;;;;;6.22;1.50;;;;;;;18.59;100.00;98113.34;4894310;29;20048;-95
2023/09/23 04:39:44;;;;;;;4.43;1.10;;;;;;;18.70;100.00;98134.13;4893895;29;20490;-95
2023/09/23 04:42:11;;;;;;;2.05;1.05;;;;;;;19.04;100.00;98189.22;4908132;29;20123;-94
2023/09/23 04:44:41;;;;;;;4.63;1.20;;;;;;;18.68;100.00;98128.84;4904979;29;20059;-94
2023/09/23 04:47:07;;;;;;;5.10;1.30;;;;;;;18.78;100.00;98128.22;4898930;29;20043;-96
2023/09/23 04:49:33;;;;;;;6.55;1.15;;;;;;;18.80;100.00;98137.03;4907102;29;20068;-95
2023/09/23 04:51:59;;;;;;;3.35;1.40;;;;;;;19.05;100.00;98169.34;4899332;29;20037;-95
2023/09/23 04:54:25;;;;;;;2.67;1.65;;;;;;;18.96;100.00;98175.41;4897128;29;20044;-95
2023/09/23 04:56:51;;;;;;;2.85;1.10;;;;;;;18.79;100.00;98156.88;4911613;29;20061;-94
2023/09/23 04:59:18;;;;;;;2.90;1.10;;;;;;;19.03;100.00;98200.94;4905009;29;20048;-95
2023/09/23 05:01:45;;;;;;;5.90;1.20;;;;;;;18.82;100.00;98170.13;4912406;29;20044;-95
2023/09/23 05:04:12;;;;;;;3.55;1.48;;;;;;;18.59;100.00;98139.41;4906382;29;20044;-95
2023/09/23 05:06:38;;;;;;;4.60;1.35;;;;;;;18.67;100.00;98147.78;4925030;29;20044;-95
2023/09/23 05:09:04;;;;;;;4.40;1.55;;;;;;;18.93;100.00;98248.34;4897100;29;20060;-94
2023/09/23 05:11:30;;;;;;;3.42;1.27;;;;;;;18.95;100.00;98229.41;4896930;29;20045;-96
2023/09/23 05:13:56;;;;;;;2.78;1.05;;;;;;;18.32;100.00;98182.53;4893221;29;20045;-94
2023/09/23 05:16:23;;;;;;;2.67;1.00;;;;;;;18.93;100.00;98247.50;4891468;29;20395;-94
2023/09/23 05:18:51;;;;;;;2.75;0.90;;;;;;;18.59;100.00;98212.09;4901595;29;20040;-95
2023/09/23 05:21:18;;;;;;;3.85;0.80;;;;;;;18.78;100.00;98246.72;4910532;29;20569;-95
2023/09/23 05:23:48;;;;;;;4.90;0.85;;;;;;;18.58;100.00;98211.22;4894045;29;20080;-96
2023/09/23 05:26:15;;;;;;;3.38;0.60;;;;;;;18.67;100.00;98237.53;4894746;29;20139;-96
2023/09/23 05:28:42;;;;;;;1.63;0.45;;;;;;;18.21;100.00;98189.50;4893622;29;20079;-96
2023/09/23 05:31:09;;;;;;;1.75;0.63;;;;;;;18.10;100.00;98185.81;4893189;29;20055;-95
2023/09/23 05:33:35;;;;;;;1.90;0.70;;;;;;;18.56;100.00;98269.69;4893121;29;20052;-96
2023/09/23 05:36:03;;;;;;;2.17;0.60;;;;;;;18.55;100.00;98276.06;4892384;29;20049;-94
2023/09/23 05:38:29;;;;;;;2.58;0.60;;;;;;;18.63;100.00;98297.13;4892318;29;20072;-95
2023/09/23 05:40:56;;;;;;;2.70;0.65;;;;;;;18.36;100.00;98244.13;4894361;29;20055;-94
2023/09/23 05:43:22;;;;;;;2.10;0.60;;;;;;;18.16;100.00;98197.03;4892992;29;20032;-94
2023/09/23 05:45:49;;;;;;;1.95;0.63;;;;;;;18.07;100.00;98192.28;4892440;29;20054;-96
2023/09/23 05:48:15;;;;;;;3.67;0.55;;;;;;;18.24;100.00;98205.47;4893034;29;20067;-95
2023/09/23 05:50:41;;;;;;;2.35;0.60;;;;;;;17.93;100.00;98186.94;4895323;29;20592;-95
2023/09/23 05:53:08;;;;;;;2.38;0.50;;;;;;;17.99;100.00;98202.69;4904721;29;20076;-95
2023/09/23 05:55:35;;;;;;;3.75;0.57;;;;;;;17.87;100.00;98199.00;4911488;29;20064;-95
2023/09/23 05:58:01;;;;;;;2.65;0.73;;;;;;;17.86;100.00;98192.72;4913641;29;20116;-95
2023/09/23 06:00:27;;;;;;;2.53;0.60;;;;;;;18.23;100.00;98236.00;4913867;29;20056;-96
2023/09/23 06:02:53;;;;;;;2.45;0.50;;;;;;;18.04;100.00;98189.78;4913761;29;20115;-95
2023/09/23 06:05:20;;;;;;;3.97;0.80;;;;;;;18.76;100.00;98303.38;4914851;29;20056;-94
2023/09/23 06:07:46;;;;;;;1.95;0.50;;;;;;;18.18;100.00;98202.31;4914795;29;20138;-96
2023/09/23 06:10:15;;;;;;;1.45;0.70;;;;;;;18.22;100.00;98207.41;4914506;29;20087;-95
2023/09/23 06:12:41;;;;;;;2.25;0.52;;;;;;;18.45;100.00;98222.00;4914343;29;20048;-95
2023/09/23 06:15:08;;;;;;;4.65;0.68;;;;;;;18.76;100.00;98264.78;4906092;29;20060;-94
2023/09/23 06:17:37;;;;;;;4.57;0.55;;;;;;;18.85;100.00;98283.94;4913480;29;20060;-94
2023/09/23 06:20:04;;;;;;;3.33;0.52;;;;;;;18.94;100.00;98281.56;4913398;29;20055;-94
2023/09/23 06:22:33;;;;;;;2.83;1.20;;;;;;;18.50;100.00;98216.28;4895044;29;20052;-94
2023/09/23 06:24:59;;;;;;;1.65;0.65;;;;;;;18.57;100.00;98241.81;4895194;29;20053;-95
2023/09/23 06:27:27;;;;;;;3.58;0.70;;;;;;;18.53;100.00;98243.00;4894850;29;20073;-94
2023/09/23 06:29:54;;;;;;;3.78;0.57;;;;;;;18.86;100.00;98296.41;4919260;29;20058;-94
2023/09/23 06:32:20;;;;;;;3.75;0.88;;;;;;;18.63;100.00;98240.56;4904009;29;20044;-94
2023/09/23 06:34:46;;;;;;;5.57;0.80;;;;;;;19.01;100.00;98307.97;4894612;29;20044;-96
2023/09/23 06:37:12;;;;;;;4.25;1.17;;;;;;;18.92;100.00;98299.69;4907954;29;20071;-94
2023/09/23 06:39:38;;;;;;;6.13;0.98;;;;;;;19.26;100.00;98354.81;4892985;29;20044;-95
2023/09/23 06:42:04;;;;;;;6.65;1.08;;;;;;;18.77;100.00;98267.38;4897267;29;20028;-95
2023/09/23 06:44:31;;;;;;;2.58;0.98;;;;;;;18.80;100.00;98255.56;4907880;29;20052;-94
2023/09/23 06:47:00;;;;;;;3.38;0.60;;;;;;;19.12;100.00;98311.75;4902863;29;20064;-94
2023/09/23 06:49:26;;;;;;;4.25;0.73;;;;;;;19.14;100.00;98305.28;4898867;29;20494;-94
2023/09/23 06:51:52;;;;;;;3.45;0.75;;;;;;;18.83;100.00;98293.09;4877984;29;20139;-96
2023/09/23 06:54:18;;;;;;;4.97;0.93;;;;;;;19.45;100.00;98382.22;4877853;29;20049;-96
2023/09/23 06:56:45;;;;;;;5.32;1.00;;;;;;;19.36;100.00;98303.78;4875174;29;20045;-95
2023/09/23 06:59:11;;;;;;;3.33;0.80;;;;;;;19.55;100.00;98266.47;4873937;29;20037;-96
2023/09/23 07:01:38;;;;;;;2.47;0.75;;;;;;;20.10;100.00;98267.00;4877025;29;20084;-95
2023/09/23 07:04:05;;;;;;;3.00;0.68;;;;;;;20.41;100.00;98280.94;4882115;29;20143;-94
2023/09/23 07:06:31;;;;;;;2.17;0.80;;;;;;;20.62;100.00;98265.78;4893484;29;20044;-95
2023/09/23 07:08:57;;;;;;;4.75;0.82;;;;;;;21.14;100.00;98347.41;4897326;29;20076;-95
2023/09/23 07:11:23;;;;;;;5.70;0.90;;;;;;;20.37;100.00;98244.31;4893842;29;20116;-95
2023/09/23 07:13:49;;;;;;;3.45;0.73;;;;;;;20.96;100.00;98311.88;4890062;29;20044;-95
2023/09/23 07:16:17;;;;;;;4.15;0.82;;;;;;;19.86;100.00;98227.38;4889655;29;20045;-95
2023/09/23 07:18:45;;;;;;;1.38;0.63;;;;;;;20.72;100.00;98296.53;4896183;29;20059;-95
2023/09/23 07:21:11;;;;;;;1.92;0.68;;;;;;;20.75;100.00;98246.81;4895190;29;20048;-95
2023/09/23 07:23:37;;;;;;;4.20;0.93;;;;;;;20.96;100.00;98279.44;4891001;29;20101;-96
2023/09/23 07:26:04;;;;;;;2.75;0.55;;;;;;;21.18;100.00;98339.94;4893257;29;20052;-95
2023/09/23 07:28:30;;;;;;;4.28;0.70;;;;;;;20.92;100.00;98338.25;4893145;29;20446;-95
2023/09/23 07:30:57;;;;;;;6.30;0.73;;;;;;;20.62;100.00;98295.50;4891177;29;20037;-94
2023/09/23 07:33:23;;;;;;;2.97;0.63;;;;;;;20.44;100.00;98291.47;4888012;29;20177;-94
2023/09/23 07:35:50;;;;;;;5.28;0.98;;;;;;;20.79;100.00;98331.22;4892535;29;20585;-94
2023/09/23 07:38:17;;;;;;;1.65;0.52;;;;;;;21.04;100.00;98322.09;4893674;29;20036;-94
2023/09/23 07:40:43;;;;;;;2.72;0.70;;;;;;;21.43;100.00;98296.50;4896133;29;20053;-96
2023/09/23 07:43:09;;;;;;;2.17;0.75;;;;;;;21.41;100.00;98266.03;4892869;29;20426;-94
2023/09/23 07:45:37;;;;;;;1.90;0.68;;;;;;;21.60;100.00;98256.41;4892482;29;20056;-95
2023/09/23 07:48:04;;;;;;;4.28;0.85;;;;;;;21.50;100.00;98272.53;4893914;29;20055;-95
2023/09/23 07:50:31;;;;;;;6.20;1.10;;;;;;;21.40;100.00;98285.88;4894057;29;20050;-96
2023/09/23 07:52:59;;;;;;;5.20;0.95;;;;;;;21.69;100.00;98312.53;4893376;29;20052;-96
2023/09/23 07:55:25;;;;;;;2.20;1.00;;;;;;;21.71;100.00;98297.03;4892784;29;20063;-95
2023/09/23 07:57:54;;;;;;;2.35;0.93;;;;;;;21.77;100.00;98285.69;4895501;29;20081;-96
2023/09/23 08:00:21;;;;;;;;;;;;;;;22.00;100.00;98375.88;4909286;29;20078;-96
2023/09/23 08:02:47;;;;;;;2.92;0.88;;;;;;;21.58;100.00;98289.03;4914752;29;19923;-96
2023/09/23 08:05:13;;;;;;;1.80;0.80;;;;;;;21.55;100.00;98289.25;4911058;29;20055;-95
2023/09/23 08:07:39;;;;;;;2.83;1.10;;;;;;;21.84;100.00;98311.28;4912828;29;20192;-96
2023/09/23 08:10:14;;;;;;;1.30;0.60;;;;;;;22.31;97.94;98313.81;4932577;29;20048;-95
2023/09/23 08:12:40;;;;;;;2.50;0.80;;;;;;;21.38;100.00;98273.47;4913209;29;20085;-95
2023/09/23 08:15:13;;;;;;;1.27;0.50;;;;;;;21.86;100.00;98278.66;4913382;29;20490;-95
2023/09/23 08:17:39;;;;;;;2.78;0.65;;;;;;;22.06;97.54;98277.06;4915360;29;20059;-96
2023/09/23 08:20:17;;;;;;;5.30;0.40;;;;;;;22.10;96.45;98278.53;4913677;29;20052;-95
2023/09/23 08:22:44;;;;;;;2.17;0.63;;;;;;;22.15;94.71;98271.72;4914074;29;20103;-94
2023/09/23 08:25:13;;;;;;;1.23;0.47;;;;;;;21.95;96.36;98276.09;4913830;29;20115;-96
2023/09/23 08:27:41;;;;;;;2.83;0.60;;;;;;;22.02;98.04;98265.59;4913030;29;20070;-96
2023/09/23 08:30:08;;;;;;;2.28;0.70;;;;;;;22.68;90.96;98267.41;4910945;29;20142;-96
2023/09/23 08:32:34;;;;;;;4.75;0.80;;;;;;;22.76;93.19;98303.69;4913271;29;20048;-95
2023/09/23 08:35:00;;;;;;;1.40;0.95;;;;;;;22.70;90.86;98268.97;4912887;29;20044;-95
2023/09/23 08:37:26;;;;;;;3.67;0.80;;;;;;;22.31;92.01;98287.59;4912920;29;20139;-96
2023/09/23 08:39:52;;;;;;;2.75;0.90;;;;;;;22.12;93.68;98282.81;4913860;29;20139;-96
2023/09/23 08:42:23;;;;;;;3.10;1.02;;;;;;;22.16;92.48;98324.03;4912578;29;20261;-95
2023/09/23 08:44:50;;;;;;;4.15;0.73;;;;;;;21.64;94.38;98284.94;4912227;29;20056;-96
2023/09/23 08:47:18;;;;;;;11.05;7.13;;;;;;;21.78;95.27;98305.50;4910599;29;20044;-94
2023/09/23 08:49:46;;;;;;;3.55;1.50;;;;;;;21.33;100.00;98269.28;4911788;29;20119;-95
2023/09/23 08:52:13;;;;;;;8.77;4.38;;;;;;;21.27;97.97;98279.72;4911479;29;20079;-96
2023/09/23 08:54:39;;;;;;;21.90;10.07;;;;;;;21.11;98.08;98270.13;4910437;29;20230;-96
2023/09/23 08:57:05;;;;;;;11.13;4.78;;;;;;;21.67;97.74;98268.50;4911561;29;20565;-95
2023/09/23 08:59:34;;;;;;;2.47;1.10;;;;;;;21.87;94.29;98280.41;4914159;29;20510;-96
2023/09/23 09:01:59;;;;;;;3.15;0.88;;;;;;;22.32;92.67;98267.66;4913942;29;20039;-96
2023/09/23 09:04:26;;;;;;;1.60;0.68;;;;;;;22.64;90.93;98271.34;4942109;29;20052;-96
2023/09/23 09:06:53;;;;;;;3.20;1.08;;;;;;;23.15;88.46;98303.19;4908974;29;20048;-95
2023/09/23 09:09:19;;;;;;;4.47;1.10;;;;;;;23.37;83.90;98270.47;4909778;29;20150;-96
2023/09/23 09:11:46;;;;;;;1.10;0.63;;;;;;;23.29;83.18;98302.84;4910607;29;20498;-96
2023/09/23 09:14:13;;;;;;;3.33;0.82;;;;;;;22.69;84.76;98264.56;4908797;29;20081;-96
2023/09/23 09:16:41;;;;;;;2.42;0.63;;;;;;;22.73;85.71;98303.97;4889557;29;20081;-96
2023/09/23 09:19:07;;;;;;;2.40;0.68;;;;;;;22.63;86.68;98297.59;4882675;29;20048;-96
2023/09/23 09:21:34;;;;;;;2.72;0.98;;;;;;;22.79;86.77;98345.09;4891103;29;20055;-95
2023/09/23 09:24:00;;;;;;;4.63;1.60;;;;;;;22.31;88.01;98265.94;4890189;29;20105;-94
2023/09/23 09:26:26;;;;;;;3.05;1.00;;;;;;;22.34;87.71;98259.41;4890750;29;20048;-96
2023/09/23 09:28:52;;;;;;;4.07;0.80;;;;;;;22.91;88.33;98346.78;4889947;29;20044;-95
2023/09/23 09:31:18;;;;;;;3.70;0.77;;;;;;;22.89;88.10;98338.75;4905193;29;20052;-94
2023/09/23 09:33:47;;;;;;;2.88;0.60;;;;;;;22.64;87.63;98272.22;4894833;29;20045;-95
2023/09/23 09:36:17;;;;;;;2.50;0.77;;;;;;;23.24;88.49;98350.34;4905630;29;20532;-94
2023/09/23 09:38:44;;;;;;;1.08;0.73;;;;;;;23.33;86.39;98344.13;4895652;29;20048;-94
2023/09/23 09:41:16;;;;;;;1.50;0.60;;;;;;;23.24;85.26;98296.09;4897308;29;20060;-95
2023/09/23 09:43:45;;;;;;;2.38;0.80;;;;;;;23.38;84.12;98302.03;4889737;29;20049;-95
2023/09/23 09:46:13;;;;;;;2.83;1.05;;;;;;;23.35;83.08;98249.88;4894392;29;20414;-96
2023/09/23 09:48:41;;;;;;;4.25;0.80;;;;;;;24.23;79.33;98310.00;4895298;29;20060;-95
2023/09/23 09:51:15;;;;;;;4.63;0.85;;;;;;;24.37;76.86;98294.13;4893951;29;20064;-94
2023/09/23 09:53:44;;;;;;;2.58;1.00;;;;;;;24.01;64.73;98240.44;4899450;29;20036;-94
2023/09/23 09:56:10;;;;;;;3.85;1.10;;;;;;;24.28;64.73;98327.59;4903136;29;20048;-96
2023/09/23 09:58:37;;;;;;;2.25;0.80;;;;;;;23.47;68.13;98254.25;4891092;29;20091;-95
2023/09/23 10:01:03;;;;;;;3.47;0.95;;;;;;;23.72;68.49;98303.63;4898993;29;20044;-94
2023/09/23 10:03:29;;;;;;;2.47;0.70;;;;;;;23.67;67.15;98300.47;4894808;29;20079;-94
2023/09/23 10:05:59;;;;;;;1.88;0.65;;;;;;;23.72;66.67;98322.63;4904698;29;20506;-94
2023/09/23 10:08:35;;;;;;;3.20;1.00;;;;;;;22.91;66.28;98300.69;4902750;29;20398;-94
2023/09/23 10:11:04;;;;;;;3.08;0.75;;;;;;;23.21;67.81;98320.78;4879155;29;20604;-95
2023/09/23 10:13:32;;;;;;;4.13;0.90;;;;;;;23.56;66.40;98353.00;4897749;29;20119;-93
2023/09/23 10:16:03;;;;;;;1.23;0.80;;;;;;;23.51;67.26;98331.69;4899235;29;20040;-93
2023/09/23 10:18:35;;;;;;;8.82;2.67;;;;;;;23.33;66.32;98303.44;4897478;29;20048;-93
2023/09/23 10:21:02;;;;;;;8.02;2.28;;;;;;;23.41;66.00;98316.34;4892999;29;20067;-93
2023/09/23 10:23:35;;;;;;;8.35;1.60;;;;;;;23.25;65.90;98298.69;4923668;29;20055;-91
2023/09/23 10:26:13;;;;;;;6.57;1.65;;;;;;;23.38;66.92;98320.19;4898316;29;20044;-93
2023/09/23 10:28:39;;;;;;;4.15;0.90;;;;;;;23.24;65.13;98305.09;4898979;29;20549;-95
2023/09/23 10:31:06;;;;;;;3.25;0.77;;;;;;;23.65;64.83;98345.91;4890190;29;20075;-93
2023/09/23 10:33:34;;;;;;;3.90;0.75;;;;;;;23.33;63.07;98300.72;4926837;29;20055;-94
2023/09/23 10:36:00;;;;;;;3.22;0.82;;;;;;;23.00;62.52;98251.13;4890831;29;20036;-94
2023/09/23 10:38:34;;;;;;;2.40;0.70;;;;;;;23.55;62.67;98327.72;4900447;29;20040;-95
2023/09/23 10:41:01;;;;;;;3.15;1.13;;;;;;;22.91;65.12;98265.44;4892181;29;20040;-93
2023/09/23 10:43:27;;;;;;;4.60;1.33;;;;;;;23.37;67.42;98329.31;4896138;29;20055;-93
2023/09/23 10:45:54;;;;;;;6.63;1.90;;;;;;;23.30;66.18;98301.00;4893931;29;20076;-94
2023/09/23 10:48:21;;;;;;;4.70;1.50;;;;;;;23.20;66.08;98336.19;4896640;29;20048;-94
2023/09/23 10:50:51;;;;;;;2.00;0.60;;;;;;;23.16;64.72;98288.59;4897782;29;20048;-92
2023/09/23 10:53:18;;;;;;;3.08;0.90;;;;;;;23.37;64.88;98284.03;4902453;29;20105;-93
2023/09/23 10:55:47;;;;;;;2.60;0.90;;;;;;;23.21;64.20;98237.56;4898864;29;20092;-93
2023/09/23 10:58:13;;;;;;;2.30;1.13;;;;;;;23.20;64.12;98253.94;4899692;29;20045;-93
2023/09/23 11:00:40;;;;;;;2.38;0.80;;;;;;;23.23;63.44;98254.56;4928777;29;20044;-95
2023/09/23 11:03:09;;;;;;;3.45;0.65;;;;;;;23.61;63.32;98261.16;4894118;29;20140;-95
2023/09/23 11:05:37;;;;;;;;;;;;;;;24.38;60.95;98320.34;4907046;29;20574;-95
2023/09/23 11:08:04;;;;;;;3.15;0.93;;;;;;;24.41;60.40;98273.00;4935216;29;20014;-93
2023/09/23 11:10:31;;;;;;;3.13;0.85;;;;;;;24.50;58.74;98265.88;4899436;29;20104;-95
2023/09/23 11:12:59;;;;;;;2.15;0.63;;;;;;;24.27;58.16;98238.09;4895544;29;20611;-93
2023/09/23 11:15:25;;;;;;;1.55;0.63;;;;;;;24.82;57.67;98325.44;4896282;29;20048;-94
2023/09/23 11:17:54;;;;;;;1.75;0.60;;;;;;;24.20;57.87;98251.34;4894306;29;20043;-96
2023/09/23 11:20:27;;;;;;;2.92;0.60;;;;;;;24.27;57.41;98297.88;4899292;29;20048;-95
2023/09/23 11:22:57;;;;;;;4.70;0.73;;;;;;;23.82;58.57;98268.44;4897920;29;20072;-93
2023/09/23 11:25:24;;;;;;;2.05;0.57;;;;;;;23.71;58.58;98300.06;4887807;29;20070;-94
2023/09/23 11:27:51;;;;;;;5.28;0.63;;;;;;;23.48;58.18;98290.38;4889843;29;20052;-94